sensor_id;sensor_type;location;lat;lon;timestamp;P1;durP1;ratioP1;P2;durP2;ratioP2
49241;SDS011;35079;52.704;13.814;2023-07-31T00:00:29;5.72;;;2.10;;
49241;SDS011;35079;52.704;13.814;2023-07-31T00:02:55;3.92;;;1.88;;
49241;SDS011;35079;52.704;13.814;2023-07-31T00:05:21;5.88;;;2.25;;
49241;SDS011;35079;52.704;13.814;2023-07-31T00:07:49;5.03;;;2.28;;
49241;SDS011;35079;52.704;13.814;2023-07-31T00:10:15;9.55;;;2.10;;
49241;SDS011;35079;52.704;13.814;2023-07-31T00:12:42;3.65;;;1.67;;
49241;SDS011;35079;52.704;13.814;2023-07-31T00:15:08;6.22;;;2.35;;
49241;SDS011;35079;52.704;13.814;2023-07-31T00:17:35;8.30;;;2.13;;
49241;SDS011;35079;52.704;13.814;2023-07-31T00:20:01;6.68;;;2.25;;
49241;SDS011;35079;52.704;13.814;2023-07-31T00:22:27;4.15;;;2.25;;
49241;SDS011;35079;52.704;13.814;2023-07-31T00:24:52;6.78;;;2.13;;
49241;SDS011;35079;52.704;13.814;2023-07-31T00:27:18;8.27;;;2.08;;
49241;SDS011;35079;52.704;13.814;2023-07-31T00:29:44;6.15;;;2.15;;
49241;SDS011;35079;52.704;13.814;2023-07-31T00:32:09;6.32;;;2.33;;
49241;SDS011;35079;52.704;13.814;2023-07-31T00:34:35;4.88;;;2.20;;
49241;SDS011;35079;52.704;13.814;2023-07-31T00:37:00;4.22;;;1.92;;
49241;SDS011;35079;52.704;13.814;2023-07-31T00:39:26;8.30;;;2.50;;
49241;SDS011;35079;52.704;13.814;2023-07-31T00:41:52;7.75;;;1.95;;
49241;SDS011;35079;52.704;13.814;2023-07-31T00:44:17;7.57;;;2.20;;
49241;SDS011;35079;52.704;13.814;2023-07-31T00:46:43;9.13;;;2.50;;
49241;SDS011;35079;52.704;13.814;2023-07-31T00:49:09;3.42;;;2.10;;
49241;SDS011;35079;52.704;13.814;2023-07-31T00:51:35;5.18;;;2.10;;
49241;SDS011;35079;52.704;13.814;2023-07-31T00:54:01;4.53;;;2.22;;
49241;SDS011;35079;52.704;13.814;2023-07-31T00:56:28;8.52;;;2.10;;
49241;SDS011;35079;52.704;13.814;2023-07-31T00:58:54;7.07;;;3.05;;
49241;SDS011;35079;52.704;13.814;2023-07-31T01:01:20;11.52;;;2.40;;
49241;SDS011;35079;52.704;13.814;2023-07-31T01:03:47;5.28;;;2.33;;
49241;SDS011;35079;52.704;13.814;2023-07-31T01:06:24;6.75;;;2.58;;
49241;SDS011;35079;52.704;13.814;2023-07-31T01:12:01;8.70;;;2.40;;
49241;SDS011;35079;52.704;13.814;2023-07-31T01:14:29;4.93;;;2.28;;
49241;SDS011;35079;52.704;13.814;2023-07-31T01:16:55;5.30;;;2.42;;
49241;SDS011;35079;52.704;13.814;2023-07-31T01:19:24;6.90;;;2.45;;
49241;SDS011;35079;52.704;13.814;2023-07-31T01:27:24;3.00;;;2.17;;
49241;SDS011;35079;52.704;13.814;2023-07-31T01:30:00;4.60;;;2.35;;
49241;SDS011;35079;52.704;13.814;2023-07-31T01:32:36;8.70;;;2.45;;
49241;SDS011;35079;52.704;13.814;2023-07-31T01:35:05;5.63;;;2.38;;
49241;SDS011;35079;52.704;13.814;2023-07-31T01:37:31;8.07;;;2.30;;
49241;SDS011;35079;52.704;13.814;2023-07-31T01:39:57;7.50;;;2.38;;
49241;SDS011;35079;52.704;13.814;2023-07-31T01:42:22;3.45;;;2.33;;
49241;SDS011;35079;52.704;13.814;2023-07-31T01:44:48;9.80;;;2.60;;
49241;SDS011;35079;52.704;13.814;2023-07-31T01:47:13;5.70;;;2.22;;
49241;SDS011;35079;52.704;13.814;2023-07-31T01:49:39;3.92;;;2.00;;
49241;SDS011;35079;52.704;13.814;2023-07-31T01:52:05;4.40;;;2.33;;
49241;SDS011;35079;52.704;13.814;2023-07-31T01:54:30;7.50;;;2.30;;
49241;SDS011;35079;52.704;13.814;2023-07-31T01:56:56;7.82;;;2.33;;
49241;SDS011;35079;52.704;13.814;2023-07-31T01:59:22;3.60;;;2.22;;
49241;SDS011;35079;52.704;13.814;2023-07-31T02:01:47;8.70;;;2.50;;
49241;SDS011;35079;52.704;13.814;2023-07-31T02:04:13;7.30;;;2.30;;
49241;SDS011;35079;52.704;13.814;2023-07-31T02:06:38;7.07;;;2.10;;
49241;SDS011;35079;52.704;13.814;2023-07-31T02:09:04;6.07;;;2.60;;
49241;SDS011;35079;52.704;13.814;2023-07-31T02:11:29;9.48;;;2.28;;
49241;SDS011;35079;52.704;13.814;2023-07-31T02:13:55;10.18;;;3.20;;
49241;SDS011;35079;52.704;13.814;2023-07-31T02:16:21;8.23;;;2.10;;
49241;SDS011;35079;52.704;13.814;2023-07-31T02:18:46;8.55;;;2.35;;
49241;SDS011;35079;52.704;13.814;2023-07-31T02:21:12;7.47;;;2.20;;
49241;SDS011;35079;52.704;13.814;2023-07-31T02:23:37;6.25;;;2.00;;
49241;SDS011;35079;52.704;13.814;2023-07-31T02:26:03;5.82;;;2.45;;
49241;SDS011;35079;52.704;13.814;2023-07-31T02:28:29;7.00;;;2.67;;
49241;SDS011;35079;52.704;13.814;2023-07-31T02:30:54;6.45;;;2.40;;
49241;SDS011;35079;52.704;13.814;2023-07-31T02:33:20;4.72;;;2.17;;
49241;SDS011;35079;52.704;13.814;2023-07-31T02:35:46;5.55;;;2.50;;
49241;SDS011;35079;52.704;13.814;2023-07-31T02:38:11;4.30;;;2.40;;
49241;SDS011;35079;52.704;13.814;2023-07-31T02:40:37;9.77;;;2.53;;
49241;SDS011;35079;52.704;13.814;2023-07-31T02:43:04;8.57;;;2.72;;
49241;SDS011;35079;52.704;13.814;2023-07-31T02:45:29;5.93;;;2.38;;
49241;SDS011;35079;52.704;13.814;2023-07-31T02:47:55;5.70;;;2.80;;
49241;SDS011;35079;52.704;13.814;2023-07-31T02:50:20;6.03;;;2.30;;
49241;SDS011;35079;52.704;13.814;2023-07-31T02:52:46;7.07;;;2.60;;
49241;SDS011;35079;52.704;13.814;2023-07-31T02:55:11;6.38;;;2.47;;
49241;SDS011;35079;52.704;13.814;2023-07-31T02:57:37;10.00;;;2.95;;
49241;SDS011;35079;52.704;13.814;2023-07-31T03:00:03;6.25;;;2.65;;
49241;SDS011;35079;52.704;13.814;2023-07-31T03:02:31;9.70;;;3.05;;
49241;SDS011;35079;52.704;13.814;2023-07-31T03:04:57;10.13;;;2.83;;
49241;SDS011;35079;52.704;13.814;2023-07-31T03:07:22;11.73;;;2.55;;
49241;SDS011;35079;52.704;13.814;2023-07-31T03:09:48;6.53;;;2.65;;
49241;SDS011;35079;52.704;13.814;2023-07-31T03:12:13;9.55;;;2.75;;
49241;SDS011;35079;52.704;13.814;2023-07-31T03:14:40;10.77;;;2.88;;
49241;SDS011;35079;52.704;13.814;2023-07-31T03:17:05;7.45;;;2.55;;
49241;SDS011;35079;52.704;13.814;2023-07-31T03:19:31;10.65;;;2.80;;
49241;SDS011;35079;52.704;13.814;2023-07-31T03:21:57;2.95;;;2.53;;
49241;SDS011;35079;52.704;13.814;2023-07-31T03:24:24;4.15;;;2.42;;
49241;SDS011;35079;52.704;13.814;2023-07-31T03:26:50;8.23;;;2.75;;
49241;SDS011;35079;52.704;13.814;2023-07-31T03:29:15;4.43;;;2.65;;
49241;SDS011;35079;52.704;13.814;2023-07-31T03:31:41;7.57;;;2.70;;
49241;SDS011;35079;52.704;13.814;2023-07-31T03:34:06;6.28;;;2.20;;
49241;SDS011;35079;52.704;13.814;2023-07-31T03:36:32;8.70;;;2.40;;
49241;SDS011;35079;52.704;13.814;2023-07-31T03:38:58;3.08;;;2.28;;
49241;SDS011;35079;52.704;13.814;2023-07-31T03:41:23;6.72;;;2.90;;
49241;SDS011;35079;52.704;13.814;2023-07-31T03:43:49;8.18;;;2.70;;
49241;SDS011;35079;52.704;13.814;2023-07-31T03:46:21;3.63;;;2.75;;
49241;SDS011;35079;52.704;13.814;2023-07-31T03:48:47;5.63;;;2.40;;
49241;SDS011;35079;52.704;13.814;2023-07-31T03:51:13;5.95;;;2.40;;
49241;SDS011;35079;52.704;13.814;2023-07-31T03:53:39;7.22;;;2.50;;
49241;SDS011;35079;52.704;13.814;2023-07-31T03:56:04;7.25;;;2.85;;
49241;SDS011;35079;52.704;13.814;2023-07-31T03:58:30;9.43;;;2.90;;
49241;SDS011;35079;52.704;13.814;2023-07-31T04:00:55;5.93;;;2.92;;
49241;SDS011;35079;52.704;13.814;2023-07-31T04:03:21;9.40;;;3.05;;
49241;SDS011;35079;52.704;13.814;2023-07-31T04:05:47;5.70;;;2.72;;
49241;SDS011;35079;52.704;13.814;2023-07-31T04:08:12;11.05;;;3.20;;
49241;SDS011;35079;52.704;13.814;2023-07-31T04:10:38;8.35;;;2.90;;
49241;SDS011;35079;52.704;13.814;2023-07-31T04:13:03;6.75;;;2.90;;
49241;SDS011;35079;52.704;13.814;2023-07-31T04:15:29;6.13;;;3.22;;
49241;SDS011;35079;52.704;13.814;2023-07-31T04:17:54;6.15;;;2.97;;
49241;SDS011;35079;52.704;13.814;2023-07-31T04:20:20;8.30;;;3.25;;
49241;SDS011;35079;52.704;13.814;2023-07-31T04:22:46;8.85;;;3.58;;
49241;SDS011;35079;52.704;13.814;2023-07-31T04:25:11;7.65;;;3.97;;
49241;SDS011;35079;52.704;13.814;2023-07-31T04:27:37;8.00;;;4.28;;
49241;SDS011;35079;52.704;13.814;2023-07-31T04:30:03;8.30;;;4.13;;
49241;SDS011;35079;52.704;13.814;2023-07-31T04:32:29;4.80;;;4.00;;
49241;SDS011;35079;52.704;13.814;2023-07-31T04:34:54;5.05;;;3.92;;
49241;SDS011;35079;52.704;13.814;2023-07-31T04:37:20;7.40;;;4.05;;
49241;SDS011;35079;52.704;13.814;2023-07-31T04:39:46;7.82;;;4.25;;
49241;SDS011;35079;52.704;13.814;2023-07-31T04:42:11;7.63;;;4.32;;
49241;SDS011;35079;52.704;13.814;2023-07-31T04:44:37;7.05;;;3.88;;
49241;SDS011;35079;52.704;13.814;2023-07-31T04:47:03;8.40;;;4.57;;
49241;SDS011;35079;52.704;13.814;2023-07-31T04:49:28;6.07;;;4.22;;
49241;SDS011;35079;52.704;13.814;2023-07-31T04:51:54;10.57;;;4.47;;
49241;SDS011;35079;52.704;13.814;2023-07-31T04:54:20;9.73;;;4.88;;
49241;SDS011;35079;52.704;13.814;2023-07-31T04:56:45;7.53;;;4.50;;
49241;SDS011;35079;52.704;13.814;2023-07-31T04:59:12;9.02;;;4.72;;
49241;SDS011;35079;52.704;13.814;2023-07-31T05:01:37;9.35;;;4.32;;
49241;SDS011;35079;52.704;13.814;2023-07-31T05:04:03;10.77;;;4.22;;
49241;SDS011;35079;52.704;13.814;2023-07-31T05:06:29;11.10;;;4.43;;
49241;SDS011;35079;52.704;13.814;2023-07-31T05:08:54;8.95;;;4.35;;
49241;SDS011;35079;52.704;13.814;2023-07-31T05:11:20;9.25;;;4.57;;
49241;SDS011;35079;52.704;13.814;2023-07-31T05:13:45;9.93;;;4.50;;
49241;SDS011;35079;52.704;13.814;2023-07-31T05:16:11;9.00;;;4.40;;
49241;SDS011;35079;52.704;13.814;2023-07-31T05:18:37;9.07;;;4.32;;
49241;SDS011;35079;52.704;13.814;2023-07-31T05:21:03;9.57;;;4.40;;
49241;SDS011;35079;52.704;13.814;2023-07-31T05:23:29;9.40;;;4.25;;
49241;SDS011;35079;52.704;13.814;2023-07-31T05:26:02;7.82;;;4.18;;
49241;SDS011;35079;52.704;13.814;2023-07-31T05:28:31;10.38;;;4.35;;
49241;SDS011;35079;52.704;13.814;2023-07-31T05:31:00;9.88;;;4.53;;
49241;SDS011;35079;52.704;13.814;2023-07-31T05:33:26;11.25;;;4.40;;
49241;SDS011;35079;52.704;13.814;2023-07-31T05:35:52;6.57;;;4.28;;
49241;SDS011;35079;52.704;13.814;2023-07-31T05:38:18;8.70;;;3.80;;
49241;SDS011;35079;52.704;13.814;2023-07-31T05:40:43;10.68;;;3.85;;
49241;SDS011;35079;52.704;13.814;2023-07-31T05:43:09;8.57;;;4.43;;
49241;SDS011;35079;52.704;13.814;2023-07-31T05:45:35;10.05;;;4.00;;
49241;SDS011;35079;52.704;13.814;2023-07-31T05:48:01;10.95;;;4.97;;
49241;SDS011;35079;52.704;13.814;2023-07-31T05:50:27;9.82;;;4.57;;
49241;SDS011;35079;52.704;13.814;2023-07-31T05:52:53;6.50;;;4.07;;
49241;SDS011;35079;52.704;13.814;2023-07-31T05:55:19;12.07;;;4.60;;
49241;SDS011;35079;52.704;13.814;2023-07-31T05:57:44;9.73;;;3.92;;
49241;SDS011;35079;52.704;13.814;2023-07-31T06:00:11;7.75;;;4.10;;
49241;SDS011;35079;52.704;13.814;2023-07-31T06:02:37;6.85;;;4.32;;
49241;SDS011;35079;52.704;13.814;2023-07-31T06:05:03;6.03;;;4.60;;
49241;SDS011;35079;52.704;13.814;2023-07-31T06:07:31;9.90;;;4.35;;
49241;SDS011;35079;52.704;13.814;2023-07-31T06:09:57;8.80;;;4.00;;
49241;SDS011;35079;52.704;13.814;2023-07-31T06:12:28;10.65;;;4.38;;
49241;SDS011;35079;52.704;13.814;2023-07-31T06:14:54;6.43;;;3.60;;
49241;SDS011;35079;52.704;13.814;2023-07-31T06:17:19;14.23;;;3.88;;
49241;SDS011;35079;52.704;13.814;2023-07-31T06:19:46;7.75;;;3.60;;
49241;SDS011;35079;52.704;13.814;2023-07-31T06:22:12;10.65;;;3.97;;
49241;SDS011;35079;52.704;13.814;2023-07-31T06:24:37;8.27;;;3.97;;
49241;SDS011;35079;52.704;13.814;2023-07-31T06:27:03;6.82;;;3.97;;
49241;SDS011;35079;52.704;13.814;2023-07-31T06:29:30;12.20;;;4.00;;
49241;SDS011;35079;52.704;13.814;2023-07-31T06:31:55;9.32;;;3.63;;
49241;SDS011;35079;52.704;13.814;2023-07-31T06:34:21;8.68;;;3.50;;
49241;SDS011;35079;52.704;13.814;2023-07-31T06:36:47;7.25;;;3.72;;
49241;SDS011;35079;52.704;13.814;2023-07-31T06:39:12;7.43;;;3.80;;
49241;SDS011;35079;52.704;13.814;2023-07-31T06:41:38;10.63;;;4.15;;
49241;SDS011;35079;52.704;13.814;2023-07-31T06:44:04;7.07;;;3.80;;
49241;SDS011;35079;52.704;13.814;2023-07-31T06:46:30;8.20;;;3.63;;
49241;SDS011;35079;52.704;13.814;2023-07-31T06:48:55;7.57;;;3.50;;
49241;SDS011;35079;52.704;13.814;2023-07-31T06:51:21;6.50;;;3.50;;
49241;SDS011;35079;52.704;13.814;2023-07-31T06:53:46;7.57;;;3.60;;
49241;SDS011;35079;52.704;13.814;2023-07-31T06:56:12;8.70;;;3.80;;
49241;SDS011;35079;52.704;13.814;2023-07-31T06:58:38;7.40;;;3.60;;
49241;SDS011;35079;52.704;13.814;2023-07-31T07:01:04;6.20;;;3.10;;
49241;SDS011;35079;52.704;13.814;2023-07-31T07:03:29;6.75;;;3.30;;
49241;SDS011;35079;52.704;13.814;2023-07-31T07:05:55;8.65;;;3.38;;
49241;SDS011;35079;52.704;13.814;2023-07-31T07:08:21;9.57;;;3.45;;
49241;SDS011;35079;52.704;13.814;2023-07-31T07:10:47;6.88;;;3.55;;
49241;SDS011;35079;52.704;13.814;2023-07-31T07:13:12;7.20;;;3.58;;
49241;SDS011;35079;52.704;13.814;2023-07-31T07:15:38;4.85;;;3.00;;
49241;SDS011;35079;52.704;13.814;2023-07-31T07:18:04;6.70;;;3.03;;
49241;SDS011;35079;52.704;13.814;2023-07-31T07:20:30;7.85;;;3.67;;
49241;SDS011;35079;52.704;13.814;2023-07-31T07:22:56;4.75;;;3.30;;
49241;SDS011;35079;52.704;13.814;2023-07-31T07:25:21;12.63;;;3.88;;
49241;SDS011;35079;52.704;13.814;2023-07-31T07:27:47;8.90;;;3.40;;
49241;SDS011;35079;52.704;13.814;2023-07-31T07:30:13;13.07;;;4.03;;
49241;SDS011;35079;52.704;13.814;2023-07-31T07:32:39;7.50;;;3.80;;
49241;SDS011;35079;52.704;13.814;2023-07-31T07:35:05;8.00;;;3.47;;
49241;SDS011;35079;52.704;13.814;2023-07-31T07:37:31;5.97;;;3.53;;
49241;SDS011;35079;52.704;13.814;2023-07-31T07:39:57;7.45;;;3.47;;
49241;SDS011;35079;52.704;13.814;2023-07-31T07:42:23;7.95;;;3.70;;
49241;SDS011;35079;52.704;13.814;2023-07-31T07:44:48;5.72;;;3.53;;
49241;SDS011;35079;52.704;13.814;2023-07-31T07:47:14;6.05;;;3.53;;
49241;SDS011;35079;52.704;13.814;2023-07-31T07:49:40;10.88;;;3.80;;
49241;SDS011;35079;52.704;13.814;2023-07-31T07:52:05;5.68;;;3.40;;
49241;SDS011;35079;52.704;13.814;2023-07-31T07:54:31;7.55;;;3.05;;
49241;SDS011;35079;52.704;13.814;2023-07-31T07:56:57;5.43;;;3.13;;
49241;SDS011;35079;52.704;13.814;2023-07-31T07:59:24;11.35;;;3.63;;
49241;SDS011;35079;52.704;13.814;2023-07-31T08:01:50;7.93;;;3.03;;
49241;SDS011;35079;52.704;13.814;2023-07-31T08:04:15;8.32;;;3.10;;
49241;SDS011;35079;52.704;13.814;2023-07-31T08:06:41;4.90;;;2.80;;
49241;SDS011;35079;52.704;13.814;2023-07-31T08:09:06;5.63;;;2.88;;
49241;SDS011;35079;52.704;13.814;2023-07-31T08:11:34;8.20;;;3.33;;
49241;SDS011;35079;52.704;13.814;2023-07-31T08:14:00;9.60;;;3.40;;
49241;SDS011;35079;52.704;13.814;2023-07-31T08:16:25;5.65;;;2.58;;
49241;SDS011;35079;52.704;13.814;2023-07-31T08:18:51;7.53;;;3.42;;
49241;SDS011;35079;52.704;13.814;2023-07-31T08:21:16;8.68;;;3.78;;
49241;SDS011;35079;52.704;13.814;2023-07-31T08:23:42;7.68;;;3.10;;
49241;SDS011;35079;52.704;13.814;2023-07-31T08:26:08;4.65;;;2.78;;
49241;SDS011;35079;52.704;13.814;2023-07-31T08:28:39;7.75;;;3.15;;
49241;SDS011;35079;52.704;13.814;2023-07-31T08:31:05;7.20;;;2.75;;
49241;SDS011;35079;52.704;13.814;2023-07-31T08:33:30;8.27;;;3.03;;
49241;SDS011;35079;52.704;13.814;2023-07-31T08:35:56;10.70;;;3.15;;
49241;SDS011;35079;52.704;13.814;2023-07-31T08:38:28;9.55;;;3.50;;
49241;SDS011;35079;52.704;13.814;2023-07-31T08:40:56;6.40;;;2.95;;
49241;SDS011;35079;52.704;13.814;2023-07-31T08:43:22;6.20;;;2.90;;
49241;SDS011;35079;52.704;13.814;2023-07-31T08:45:51;4.82;;;2.90;;
49241;SDS011;35079;52.704;13.814;2023-07-31T08:48:17;6.15;;;2.80;;
49241;SDS011;35079;52.704;13.814;2023-07-31T08:50:45;7.75;;;2.70;;
49241;SDS011;35079;52.704;13.814;2023-07-31T08:53:11;4.88;;;2.30;;
49241;SDS011;35079;52.704;13.814;2023-07-31T08:55:37;5.03;;;2.78;;
49241;SDS011;35079;52.704;13.814;2023-07-31T08:58:04;4.85;;;2.67;;
49241;SDS011;35079;52.704;13.814;2023-07-31T09:00:33;4.53;;;3.00;;
49241;SDS011;35079;52.704;13.814;2023-07-31T09:03:08;4.40;;;2.90;;
49241;SDS011;35079;52.704;13.814;2023-07-31T09:05:36;6.97;;;2.38;;
49241;SDS011;35079;52.704;13.814;2023-07-31T09:08:06;5.45;;;2.30;;
49241;SDS011;35079;52.704;13.814;2023-07-31T09:10:34;4.97;;;2.38;;
49241;SDS011;35079;52.704;13.814;2023-07-31T09:13:00;5.13;;;2.40;;
49241;SDS011;35079;52.704;13.814;2023-07-31T09:15:27;3.50;;;2.42;;
49241;SDS011;35079;52.704;13.814;2023-07-31T09:18:00;4.43;;;2.40;;
49241;SDS011;35079;52.704;13.814;2023-07-31T09:20:26;4.82;;;2.50;;
49241;SDS011;35079;52.704;13.814;2023-07-31T09:22:52;3.55;;;2.00;;
49241;SDS011;35079;52.704;13.814;2023-07-31T09:30:12;3.58;;;2.05;;
49241;SDS011;35079;52.704;13.814;2023-07-31T09:32:38;6.35;;;2.20;;
49241;SDS011;35079;52.704;13.814;2023-07-31T09:35:14;2.63;;;1.90;;
49241;SDS011;35079;52.704;13.814;2023-07-31T09:37:50;3.50;;;2.35;;
49241;SDS011;35079;52.704;13.814;2023-07-31T09:40:41;3.22;;;1.80;;
49241;SDS011;35079;52.704;13.814;2023-07-31T09:43:09;3.50;;;2.22;;
49241;SDS011;35079;52.704;13.814;2023-07-31T09:45:37;4.82;;;1.90;;
49241;SDS011;35079;52.704;13.814;2023-07-31T09:48:08;1.52;;;1.35;;
49241;SDS011;35079;52.704;13.814;2023-07-31T09:50:36;3.45;;;1.70;;
49241;SDS011;35079;52.704;13.814;2023-07-31T09:53:03;2.22;;;1.50;;
49241;SDS011;35079;52.704;13.814;2023-07-31T09:55:29;3.67;;;1.40;;
49241;SDS011;35079;52.704;13.814;2023-07-31T09:57:56;2.00;;;1.33;;
49241;SDS011;35079;52.704;13.814;2023-07-31T10:00:23;3.25;;;1.50;;
49241;SDS011;35079;52.704;13.814;2023-07-31T10:02:51;2.83;;;1.58;;
49241;SDS011;35079;52.704;13.814;2023-07-31T10:05:19;2.88;;;1.70;;
49241;SDS011;35079;52.704;13.814;2023-07-31T10:07:50;2.20;;;1.20;;
49241;SDS011;35079;52.704;13.814;2023-07-31T10:10:19;1.70;;;1.60;;
49241;SDS011;35079;52.704;13.814;2023-07-31T10:12:47;1.83;;;1.50;;
49241;SDS011;35079;52.704;13.814;2023-07-31T10:15:17;3.15;;;1.52;;
49241;SDS011;35079;52.704;13.814;2023-07-31T10:17:43;3.08;;;1.75;;
49241;SDS011;35079;52.704;13.814;2023-07-31T10:20:11;3.40;;;1.80;;
49241;SDS011;35079;52.704;13.814;2023-07-31T10:22:37;1.88;;;1.30;;
49241;SDS011;35079;52.704;13.814;2023-07-31T10:25:04;4.47;;;1.58;;
49241;SDS011;35079;52.704;13.814;2023-07-31T10:27:32;4.13;;;1.70;;
49241;SDS011;35079;52.704;13.814;2023-07-31T10:30:14;3.00;;;1.60;;
49241;SDS011;35079;52.704;13.814;2023-07-31T10:32:42;1.55;;;1.45;;
49241;SDS011;35079;52.704;13.814;2023-07-31T10:35:10;1.60;;;1.50;;
49241;SDS011;35079;52.704;13.814;2023-07-31T10:37:37;4.25;;;1.65;;
49241;SDS011;35079;52.704;13.814;2023-07-31T10:42:45;2.50;;;1.80;;
49241;SDS011;35079;52.704;13.814;2023-07-31T10:45:24;3.20;;;1.73;;
49241;SDS011;35079;52.704;13.814;2023-07-31T10:48:02;3.72;;;1.60;;
49241;SDS011;35079;52.704;13.814;2023-07-31T10:50:29;2.20;;;1.88;;
49241;SDS011;35079;52.704;13.814;2023-07-31T10:52:59;3.72;;;2.20;;
49241;SDS011;35079;52.704;13.814;2023-07-31T10:55:29;5.57;;;2.40;;
49241;SDS011;35079;52.704;13.814;2023-07-31T10:58:04;2.35;;;2.13;;
49241;SDS011;35079;52.704;13.814;2023-07-31T11:00:34;3.60;;;2.35;;
49241;SDS011;35079;52.704;13.814;2023-07-31T11:08:11;3.88;;;2.40;;
49241;SDS011;35079;52.704;13.814;2023-07-31T11:10:37;4.40;;;2.70;;
49241;SDS011;35079;52.704;13.814;2023-07-31T11:13:04;3.65;;;2.58;;
49241;SDS011;35079;52.704;13.814;2023-07-31T11:15:30;4.00;;;2.95;;
49241;SDS011;35079;52.704;13.814;2023-07-31T11:17:56;5.15;;;3.10;;
49241;SDS011;35079;52.704;13.814;2023-07-31T11:20:26;3.95;;;2.85;;
49241;SDS011;35079;52.704;13.814;2023-07-31T11:22:52;4.43;;;3.40;;
49241;SDS011;35079;52.704;13.814;2023-07-31T11:25:18;5.00;;;3.60;;
49241;SDS011;35079;52.704;13.814;2023-07-31T11:27:43;5.65;;;3.47;;
49241;SDS011;35079;52.704;13.814;2023-07-31T11:30:10;4.10;;;2.92;;
49241;SDS011;35079;52.704;13.814;2023-07-31T11:32:36;4.88;;;3.17;;
49241;SDS011;35079;52.704;13.814;2023-07-31T11:35:02;9.10;;;3.97;;
49241;SDS011;35079;52.704;13.814;2023-07-31T11:37:43;8.43;;;3.30;;
49241;SDS011;35079;52.704;13.814;2023-07-31T11:40:09;4.93;;;3.42;;
49241;SDS011;35079;52.704;13.814;2023-07-31T11:42:36;6.28;;;3.20;;
49241;SDS011;35079;52.704;13.814;2023-07-31T11:45:05;7.65;;;3.50;;
49241;SDS011;35079;52.704;13.814;2023-07-31T11:47:35;7.20;;;3.22;;
49241;SDS011;35079;52.704;13.814;2023-07-31T11:50:02;6.57;;;3.50;;
49241;SDS011;35079;52.704;13.814;2023-07-31T11:52:30;6.28;;;3.45;;
49241;SDS011;35079;52.704;13.814;2023-07-31T11:55:01;7.10;;;3.50;;
49241;SDS011;35079;52.704;13.814;2023-07-31T11:57:27;6.70;;;3.22;;
49241;SDS011;35079;52.704;13.814;2023-07-31T11:59:54;4.88;;;2.60;;
49241;SDS011;35079;52.704;13.814;2023-07-31T12:02:21;6.72;;;3.25;;
49241;SDS011;35079;52.704;13.814;2023-07-31T12:04:47;6.82;;;3.38;;
49241;SDS011;35079;52.704;13.814;2023-07-31T12:07:13;6.78;;;3.38;;
49241;SDS011;35079;52.704;13.814;2023-07-31T12:09:49;8.48;;;3.58;;
49241;SDS011;35079;52.704;13.814;2023-07-31T12:12:22;4.22;;;2.85;;
49241;SDS011;35079;52.704;13.814;2023-07-31T12:14:48;6.25;;;2.92;;
49241;SDS011;35079;52.704;13.814;2023-07-31T12:17:15;8.45;;;3.25;;
49241;SDS011;35079;52.704;13.814;2023-07-31T12:19:42;4.40;;;2.85;;
49241;SDS011;35079;52.704;13.814;2023-07-31T12:22:13;4.22;;;3.00;;
49241;SDS011;35079;52.704;13.814;2023-07-31T12:24:41;9.18;;;3.28;;
49241;SDS011;35079;52.704;13.814;2023-07-31T12:27:10;5.55;;;3.25;;
49241;SDS011;35079;52.704;13.814;2023-07-31T12:29:40;9.77;;;3.22;;
49241;SDS011;35079;52.704;13.814;2023-07-31T12:35:06;5.10;;;3.28;;
49241;SDS011;35079;52.704;13.814;2023-07-31T12:37:32;5.20;;;3.17;;
49241;SDS011;35079;52.704;13.814;2023-07-31T12:39:58;8.38;;;3.28;;
49241;SDS011;35079;52.704;13.814;2023-07-31T12:42:30;4.70;;;3.20;;
49241;SDS011;35079;52.704;13.814;2023-07-31T12:44:56;4.45;;;3.00;;
49241;SDS011;35079;52.704;13.814;2023-07-31T12:47:22;8.15;;;3.10;;
49241;SDS011;35079;52.704;13.814;2023-07-31T12:49:48;8.90;;;3.40;;
49241;SDS011;35079;52.704;13.814;2023-07-31T12:52:13;6.45;;;3.00;;
49241;SDS011;35079;52.704;13.814;2023-07-31T12:54:39;7.85;;;2.85;;
49241;SDS011;35079;52.704;13.814;2023-07-31T12:57:04;8.30;;;3.00;;
49241;SDS011;35079;52.704;13.814;2023-07-31T12:59:30;5.85;;;2.85;;
49241;SDS011;35079;52.704;13.814;2023-07-31T13:01:55;5.47;;;2.65;;
49241;SDS011;35079;52.704;13.814;2023-07-31T13:04:21;4.38;;;3.40;;
49241;SDS011;35079;52.704;13.814;2023-07-31T13:06:47;4.07;;;3.00;;
49241;SDS011;35079;52.704;13.814;2023-07-31T13:09:12;7.57;;;3.22;;
49241;SDS011;35079;52.704;13.814;2023-07-31T13:11:38;5.15;;;3.28;;
49241;SDS011;35079;52.704;13.814;2023-07-31T13:14:04;7.30;;;3.42;;
49241;SDS011;35079;52.704;13.814;2023-07-31T13:16:29;5.45;;;3.67;;
49241;SDS011;35079;52.704;13.814;2023-07-31T13:18:55;8.07;;;3.85;;
49241;SDS011;35079;52.704;13.814;2023-07-31T13:21:20;5.93;;;3.58;;
49241;SDS011;35079;52.704;13.814;2023-07-31T13:23:47;6.05;;;3.17;;
49241;SDS011;35079;52.704;13.814;2023-07-31T13:26:12;8.18;;;3.42;;
49241;SDS011;35079;52.704;13.814;2023-07-31T13:28:38;5.55;;;3.33;;
49241;SDS011;35079;52.704;13.814;2023-07-31T13:31:04;4.63;;;3.10;;
49241;SDS011;35079;52.704;13.814;2023-07-31T13:33:30;6.00;;;3.28;;
49241;SDS011;35079;52.704;13.814;2023-07-31T13:35:55;7.45;;;3.72;;
49241;SDS011;35079;52.704;13.814;2023-07-31T13:38:21;7.63;;;3.75;;
49241;SDS011;35079;52.704;13.814;2023-07-31T13:40:46;7.43;;;3.80;;
49241;SDS011;35079;52.704;13.814;2023-07-31T13:43:12;7.78;;;3.80;;
49241;SDS011;35079;52.704;13.814;2023-07-31T13:45:38;6.68;;;3.85;;
49241;SDS011;35079;52.704;13.814;2023-07-31T13:48:07;4.80;;;3.35;;
49241;SDS011;35079;52.704;13.814;2023-07-31T13:50:32;5.65;;;3.63;;
49241;SDS011;35079;52.704;13.814;2023-07-31T13:52:58;9.40;;;2.95;;
49241;SDS011;35079;52.704;13.814;2023-07-31T13:55:23;6.05;;;3.05;;
49241;SDS011;35079;52.704;13.814;2023-07-31T13:57:49;5.90;;;2.95;;
49241;SDS011;35079;52.704;13.814;2023-07-31T14:00:15;6.25;;;3.67;;
49241;SDS011;35079;52.704;13.814;2023-07-31T14:02:40;6.10;;;2.85;;
49241;SDS011;35079;52.704;13.814;2023-07-31T14:05:06;4.65;;;2.70;;
49241;SDS011;35079;52.704;13.814;2023-07-31T14:07:34;5.45;;;2.40;;
49241;SDS011;35079;52.704;13.814;2023-07-31T14:10:00;3.47;;;2.17;;
49241;SDS011;35079;52.704;13.814;2023-07-31T14:12:26;6.15;;;2.38;;
49241;SDS011;35079;52.704;13.814;2023-07-31T14:14:51;2.75;;;2.28;;
49241;SDS011;35079;52.704;13.814;2023-07-31T14:17:17;3.75;;;2.10;;
49241;SDS011;35079;52.704;13.814;2023-07-31T14:19:43;6.57;;;2.28;;
49241;SDS011;35079;52.704;13.814;2023-07-31T14:22:08;5.97;;;2.70;;
49241;SDS011;35079;52.704;13.814;2023-07-31T14:24:34;5.20;;;2.55;;
49241;SDS011;35079;52.704;13.814;2023-07-31T14:27:00;5.03;;;2.25;;
49241;SDS011;35079;52.704;13.814;2023-07-31T14:29:26;5.18;;;2.80;;
49241;SDS011;35079;52.704;13.814;2023-07-31T14:31:51;7.78;;;2.75;;
49241;SDS011;35079;52.704;13.814;2023-07-31T14:34:17;5.65;;;2.60;;
49241;SDS011;35079;52.704;13.814;2023-07-31T14:36:43;5.97;;;3.10;;
49241;SDS011;35079;52.704;13.814;2023-07-31T14:39:09;4.53;;;2.50;;
49241;SDS011;35079;52.704;13.814;2023-07-31T14:41:35;5.28;;;2.70;;
49241;SDS011;35079;52.704;13.814;2023-07-31T14:44:01;5.10;;;2.85;;
49241;SDS011;35079;52.704;13.814;2023-07-31T14:46:26;7.45;;;2.97;;
49241;SDS011;35079;52.704;13.814;2023-07-31T14:48:52;3.85;;;2.70;;
49241;SDS011;35079;52.704;13.814;2023-07-31T14:51:18;4.65;;;2.80;;
49241;SDS011;35079;52.704;13.814;2023-07-31T14:53:44;4.32;;;2.72;;